Time;durP1;ratioP1;P1;durP2;ratioP2;P2;SDS_P1;SDS_P2;PMS_P1;PMS_P2;Temp;Humidity;BMP_temperature;BMP_pressure;BME280_temperature;BME280_humidity;BME280_pressure;Samples;Min_cycle;Max_cycle;Signal;HPM_P1;HPM_P2
2022/11/24 00:02:11;;;;;;;23.70;17.23;;;7.50;99.90;;;;;;5110305;27;20038;-77
2022/11/24 00:04:37;;;;;;;25.75;15.45;;;7.40;99.90;;;;;;5079591;27;20043;-77
2022/11/24 00:07:03;;;;;;;28.55;17.60;;;7.40;99.90;;;;;;5109097;27;20123;-78
2022/11/24 00:09:29;;;;;;;26.65;15.88;;;7.40;99.90;;;;;;5089905;27;20600;-77
2022/11/24 00:12:00;;;;;;;24.33;15.27;;;7.40;99.90;;;;;;5104574;27;20123;-78
2022/11/24 00:14:26;;;;;;;21.33;15.07;;;7.30;99.90;;;;;;5102238;27;20058;-78
2022/11/24 00:16:51;;;;;;;24.55;14.73;;;7.30;99.90;;;;;;5118010;27;20077;-77
2022/11/24 00:19:17;;;;;;;24.33;13.85;;;7.30;99.90;;;;;;5101274;27;20507;-77
2022/11/24 00:21:43;;;;;;;25.67;13.63;;;7.30;99.90;;;;;;5122849;27;20055;-77
2022/11/24 00:24:10;;;;;;;26.83;14.25;;;7.30;99.90;;;;;;5099879;27;20578;-79
2022/11/24 00:26:38;;;;;;;27.60;15.00;;;7.30;99.90;;;;;;5100737;27;20051;-77
2022/11/24 00:29:06;;;;;;;23.00;12.77;;;7.30;99.90;;;;;;5107498;27;20070;-78
2022/11/24 00:31:35;;;;;;;24.77;13.77;;;7.30;99.90;;;;;;5101406;27;21459;-78
2022/11/24 00:34:03;;;;;;;24.75;12.90;;;7.30;99.90;;;;;;5102522;27;20097;-77
2022/11/24 00:36:31;;;;;;;28.42;13.07;;;7.30;99.90;;;;;;5136413;27;20051;-77
2022/11/24 00:39:02;;;;;;;26.42;12.57;;;7.30;99.90;;;;;;5099707;27;20050;-77
2022/11/24 00:41:29;;;;;;;26.92;12.80;;;7.30;99.90;;;;;;5097793;27;20125;-77
2022/11/24 00:43:55;;;;;;;26.05;11.73;;;7.30;99.90;;;;;;5125068;27;20396;-77
2022/11/24 00:46:22;;;;;;;27.15;12.68;;;7.30;99.90;;;;;;5103181;27;20047;-77
2022/11/24 00:48:48;;;;;;;30.23;11.45;;;7.20;99.90;;;;;;5101787;27;20055;-77
2022/11/24 00:51:15;;;;;;;31.52;12.32;;;7.20;99.90;;;;;;5099264;27;20108;-77
2022/11/24 00:53:42;;;;;;;28.70;11.80;;;7.30;99.90;;;;;;5119077;27;20055;-78
2022/11/24 00:56:08;;;;;;;29.63;11.48;;;7.30;99.90;;;;;;5097497;27;20035;-77
2022/11/24 00:58:34;;;;;;;25.75;10.77;;;7.30;99.90;;;;;;5105070;27;20074;-77
2022/11/24 01:01:05;;;;;;;29.10;11.50;;;7.30;99.90;;;;;;5094377;27;20052;-77
2022/11/24 01:03:32;;;;;;;33.53;12.65;;;7.30;99.90;;;;;;5103819;27;20043;-77
2022/11/24 01:06:06;;;;;;;27.63;11.50;;;7.40;99.90;;;;;;5117524;27;20427;-77
2022/11/24 01:08:33;;;;;;;31.38;11.45;;;7.30;99.90;;;;;;5113770;27;20432;-77
2022/11/24 01:11:17;;;;;;;28.60;10.95;;;7.20;99.90;;;;;;5097716;27;20092;-78
2022/11/24 01:13:45;;;;;;;27.25;10.95;;;7.20;99.90;;;;;;5107115;27;20046;-78
2022/11/24 01:16:17;;;;;;;27.45;10.63;;;7.20;99.90;;;;;;5114737;27;20086;-78
2022/11/24 01:18:43;;;;;;;30.20;10.45;;;7.20;99.90;;;;;;5102110;27;20732;-78
2022/11/24 01:21:09;;;;;;;28.15;9.82;;;7.10;99.90;;;;;;5096058;27;20081;-78
2022/11/24 01:23:35;;;;;;;25.77;9.65;;;7.20;99.90;;;;;;5114084;27;20552;-78
2022/11/24 01:26:07;;;;;;;28.73;9.77;;;7.10;99.90;;;;;;5081362;27;20042;-78
2022/11/24 01:28:32;;;;;;;25.08;9.63;;;7.10;99.90;;;;;;5098767;27;20047;-78
2022/11/24 01:31:00;;;;;;;25.83;8.70;;;7.10;99.90;;;;;;5112135;27;20168;-78
2022/11/24 01:33:26;;;;;;;29.98;8.95;;;7.10;99.90;;;;;;5142326;27;20047;-78
2022/11/24 01:35:56;;;;;;;24.95;9.35;;;7.20;99.90;;;;;;5139381;27;20051;-77
2022/11/24 01:38:23;;;;;;;24.15;8.07;;;7.20;99.90;;;;;;5108449;27;20081;-77
2022/11/24 01:40:49;;;;;;;26.30;9.35;;;7.20;99.90;;;;;;5098654;27;20568;-77
2022/11/24 01:43:21;;;;;;;29.17;8.55;;;7.20;99.90;;;;;;5104958;27;20358;-78
2022/11/24 01:45:47;;;;;;;26.85;8.63;;;7.30;99.90;;;;;;5109070;27;20058;-78
2022/11/24 01:48:29;;;;;;;24.05;8.43;;;7.20;99.90;;;;;;5104008;27;20520;-78
2022/11/24 01:51:13;;;;;;;24.92;8.52;;;7.20;99.90;;;;;;5084068;27;20058;-78
2022/11/24 01:53:43;;;;;;;24.00;7.80;;;7.20;99.90;;;;;;5135014;27;20065;-77
2022/11/24 01:56:11;;;;;;;29.05;8.18;;;7.20;99.90;;;;;;5092732;27;20482;-77
2022/11/24 01:58:40;;;;;;;31.83;8.38;;;7.20;99.90;;;;;;5110715;27;20507;-77
2022/11/24 02:01:07;;;;;;;26.92;8.18;;;7.20;99.90;;;;;;5101994;27;20159;-77
2022/11/24 02:03:38;;;;;;;23.90;7.47;;;7.20;99.90;;;;;;5095084;27;20049;-78
2022/11/24 02:06:12;;;;;;;27.65;7.43;;;7.20;99.90;;;;;;5082890;27;20055;-78
2022/11/24 02:08:43;;;;;;;25.42;7.55;;;7.20;99.90;;;;;;5090000;27;20079;-78
2022/11/24 02:11:09;;;;;;;24.73;7.45;;;7.20;99.90;;;;;;5137558;27;20047;-77
2022/11/24 02:13:37;;;;;;;21.48;6.95;;;7.20;99.90;;;;;;5094776;27;20076;-78
2022/11/24 02:16:06;;;;;;;27.58;7.55;;;7.20;99.90;;;;;;5090173;27;20036;-78
2022/11/24 02:18:32;;;;;;;25.42;8.07;;;7.20;99.90;;;;;;5109130;27;20402;-77
2022/11/24 02:20:59;;;;;;;26.17;7.82;;;7.20;99.90;;;;;;5138687;27;20092;-77
2022/11/24 02:23:41;;;;;;;25.92;7.22;;;7.20;99.90;;;;;;5079877;27;20096;-77
2022/11/24 02:26:10;;;;;;;25.63;7.75;;;7.10;99.90;;;;;;5111688;27;20141;-77
2022/11/24 02:28:36;;;;;;;30.48;8.50;;;7.10;99.90;;;;;;5112294;27;20047;-77
2022/11/24 02:31:04;;;;;;;32.25;8.20;;;7.10;99.90;;;;;;5081979;27;20493;-78
2022/11/24 02:33:31;;;;;;;23.75;7.85;;;7.10;99.90;;;;;;5144624;27;20514;-78
2022/11/24 02:35:57;;;;;;;29.88;7.47;;;7.10;99.90;;;;;;5111835;27;20043;-76
2022/11/24 02:38:34;;;;;;;27.70;7.18;;;7.10;99.90;;;;;;5091240;27;20423;-78
2022/11/24 02:41:03;;;;;;;28.63;8.10;;;7.00;99.90;;;;;;5123581;27;20062;-78
2022/11/24 02:43:37;;;;;;;25.40;7.63;;;7.00;99.90;;;;;;5112667;27;20050;-78
2022/11/24 02:46:03;;;;;;;27.65;7.32;;;7.00;99.90;;;;;;5096759;27;20054;-78
2022/11/24 02:48:29;;;;;;;25.95;6.78;;;7.00;99.90;;;;;;5140902;27;20047;-78
2022/11/24 02:50:55;;;;;;;24.73;7.45;;;7.00;99.90;;;;;;5098990;27;20603;-77
2022/11/24 02:53:21;;;;;;;22.23;7.07;;;7.00;99.90;;;;;;5115121;27;20126;-78
2022/11/24 02:55:47;;;;;;;21.88;6.90;;;7.00;99.90;;;;;;5096961;27;20039;-78
2022/11/24 02:58:13;;;;;;;27.48;7.50;;;7.00;99.90;;;;;;5078734;27;20078;-77
2022/11/24 03:00:39;;;;;;;30.13;8.40;;;7.00;99.90;;;;;;5078628;27;20528;-78
2022/11/24 03:03:05;;;;;;;25.13;7.32;;;7.00;99.90;;;;;;5095028;27;20062;-78
2022/11/24 03:05:31;;;;;;;26.77;7.13;;;7.00;99.90;;;;;;5096059;27;20064;-78
2022/11/24 03:07:57;;;;;;;27.02;6.82;;;7.00;99.90;;;;;;5080333;27;20047;-78
2022/11/24 03:10:23;;;;;;;24.35;6.65;;;7.10;99.90;;;;;;5114370;27;20130;-77
2022/11/24 03:12:49;;;;;;;23.73;6.50;;;7.20;99.90;;;;;;5095050;27;20166;-77
2022/11/24 03:15:15;;;;;;;24.60;6.38;;;7.20;99.90;;;;;;5080874;27;20489;-77
2022/11/24 03:17:41;;;;;;;23.45;6.70;;;7.30;99.90;;;;;;5114009;27;20035;-77
2022/11/24 03:20:07;;;;;;;23.55;6.82;;;7.20;99.90;;;;;;5096003;27;20047;-77
2022/11/24 03:22:33;;;;;;;23.52;6.32;;;7.40;99.90;;;;;;5097273;27;20043;-77
2022/11/24 03:24:59;;;;;;;24.92;6.53;;;7.40;99.90;;;;;;5098146;27;20051;-77
2022/11/24 03:27:25;;;;;;;26.30;6.20;;;7.40;99.90;;;;;;5081296;27;20043;-77
2022/11/24 03:29:51;;;;;;;23.17;5.97;;;7.50;99.90;;;;;;5105492;27;20053;-78
2022/11/24 03:32:17;;;;;;;24.70;6.40;;;7.50;99.90;;;;;;5097990;27;20072;-77
2022/11/24 03:34:42;;;;;;;24.40;6.80;;;7.60;99.90;;;;;;5113668;27;20043;-77
2022/11/24 03:37:08;;;;;;;27.27;5.90;;;7.60;99.90;;;;;;5096873;27;20039;-78
2022/11/24 03:39:34;;;;;;;23.40;5.30;;;7.50;99.90;;;;;;5111955;27;20069;-77
2022/11/24 03:41:59;;;;;;;20.35;4.85;;;7.60;99.90;;;;;;5139745;27;20051;-77
2022/11/24 03:44:25;;;;;;;24.70;6.22;;;7.50;99.90;;;;;;5099268;27;20043;-78
2022/11/24 03:46:51;;;;;;;23.40;5.70;;;7.50;99.90;;;;;;5115493;27;20051;-77
2022/11/24 03:49:17;;;;;;;23.77;5.38;;;7.50;99.90;;;;;;5096607;27;20065;-77
2022/11/24 03:51:43;;;;;;;21.30;5.22;;;7.40;99.90;;;;;;5097884;27;20831;-77
2022/11/24 03:54:09;;;;;;;20.40;5.68;;;7.40;99.90;;;;;;5080605;27;20078;-70
2022/11/24 03:56:34;;;;;;;23.08;4.85;;;7.40;99.90;;;;;;5097627;27;20547;-70
2022/11/24 03:59:00;;;;;;;20.10;5.80;;;7.40;99.90;;;;;;5100635;27;20608;-70
2022/11/24 04:01:26;;;;;;;18.30;4.40;;;7.30;99.90;;;;;;5114767;27;20760;-70
2022/11/24 04:03:52;;;;;;;20.70;5.57;;;7.30;99.90;;;;;;5099465;27;20138;-70
2022/11/24 04:06:17;;;;;;;20.15;5.95;;;7.30;99.90;;;;;;5099000;27;20498;-70
2022/11/24 04:08:43;;;;;;;17.60;4.43;;;7.20;99.90;;;;;;5098834;27;20537;-70
2022/11/24 04:12:42;;;;;;;24.25;6.00;;;7.20;99.90;;;;;;5064809;27;20432;-70
2022/11/24 04:13:54;;;;;;;22.33;5.25;;;7.10;99.90;;;;;;5112748;27;20059;-70
2022/11/24 04:16:20;;;;;;;22.25;4.97;;;7.10;99.90;;;;;;5116846;27;20096;-70
2022/11/24 04:18:46;;;;;;;21.98;4.80;;;7.10;99.90;;;;;;5076161;27;20379;-70
2022/11/24 04:21:12;;;;;;;23.23;5.43;;;7.10;99.90;;;;;;5080450;27;20055;-70
2022/11/24 04:23:38;;;;;;;18.75;4.88;;;7.10;99.90;;;;;;5078693;27;20050;-70
2022/11/24 04:26:04;;;;;;;19.88;4.88;;;7.10;99.90;;;;;;5096806;27;20566;-70
2022/11/24 04:28:30;;;;;;;19.05;5.00;;;7.10;99.90;;;;;;5096389;27;20134;-70
2022/11/24 04:31:01;;;;;;;19.42;4.85;;;7.10;99.90;;;;;;5112459;27;20055;-70
2022/11/24 04:33:27;;;;;;;17.65;4.88;;;7.10;99.90;;;;;;5079691;27;20525;-69
2022/11/24 04:35:53;;;;;;;20.80;5.28;;;7.10;99.90;;;;;;5079854;27;20099;-70
2022/11/24 04:38:18;;;;;;;24.45;6.13;;;7.00;99.90;;;;;;5081031;27;20079;-70
2022/11/24 04:40:44;;;;;;;18.35;4.45;;;7.00;99.90;;;;;;5112692;27;20731;-70
2022/11/24 04:43:10;;;;;;;22.63;4.90;;;7.00;99.90;;;;;;5078441;27;20089;-70
2022/11/24 04:45:36;;;;;;;18.75;4.63;;;7.00;99.90;;;;;;5097308;27;20046;-70
2022/11/24 04:48:03;;;;;;;17.65;4.30;;;7.00;99.90;;;;;;5108416;27;20047;-70
2022/11/24 04:50:29;;;;;;;19.52;4.82;;;7.00;99.90;;;;;;5081138;27;20532;-70
2022/11/24 04:52:55;;;;;;;24.27;5.38;;;7.00;99.90;;;;;;5113425;27;20130;-70
2022/11/24 04:55:21;;;;;;;19.10;4.82;;;6.90;99.90;;;;;;5078838;27;20035;-70
2022/11/24 04:57:46;;;;;;;24.20;5.05;;;6.90;99.90;;;;;;5111650;27;20097;-70
2022/11/24 05:00:13;;;;;;;18.95;4.82;;;6.90;99.90;;;;;;5095504;27;20058;-70
2022/11/24 05:02:39;;;;;;;20.88;5.18;;;6.90;99.90;;;;;;5078742;27;21503;-70
2022/11/24 05:05:05;;;;;;;23.35;5.45;;;6.90;99.90;;;;;;5121883;27;20191;-70
2022/11/24 05:07:32;;;;;;;22.50;4.97;;;6.90;99.90;;;;;;5095940;27;20040;-70
2022/11/24 05:12:42;;;;;;;21.17;5.40;;;6.90;99.90;;;;;;5097732;27;20058;-70
2022/11/24 05:15:08;;;;;;;23.48;5.32;;;6.90;99.90;;;;;;5097026;27;20039;-70
2022/11/24 05:17:37;;;;;;;24.00;5.25;;;6.90;99.90;;;;;;5079263;27;20486;-70
2022/11/24 05:20:05;;;;;;;23.37;5.00;;;6.90;99.90;;;;;;5112045;27;20524;-70
2022/11/24 05:22:31;;;;;;;26.17;5.50;;;6.90;99.90;;;;;;5116074;27;20285;-71
2022/11/24 05:24:57;;;;;;;21.38;5.68;;;6.90;99.90;;;;;;5095318;27;20508;-71
2022/11/24 05:27:23;;;;;;;21.08;5.20;;;6.90;99.90;;;;;;5111437;27;20050;-71
2022/11/24 05:29:49;;;;;;;23.55;5.93;;;6.90;99.90;;;;;;5094757;27;20051;-71
2022/11/24 05:32:15;;;;;;;24.20;5.43;;;6.90;99.90;;;;;;5110282;27;20040;-70
2022/11/24 05:34:40;;;;;;;24.30;5.28;;;6.90;99.90;;;;;;5090901;27;20045;-71
2022/11/24 05:37:07;;;;;;;24.33;5.00;;;6.90;99.90;;;;;;5119079;27;20050;-71
2022/11/24 05:39:34;;;;;;;15.55;3.92;;;6.90;99.90;;;;;;5111007;27;20051;-71
2022/11/24 05:44:50;;;;;;;20.30;5.38;;;6.90;99.90;;;;;;5105948;27;20580;-71
2022/11/24 05:47:16;;;;;;;22.58;5.65;;;6.90;99.90;;;;;;5080501;27;20043;-70
2022/11/24 05:49:42;;;;;;;21.00;5.38;;;6.90;99.90;;;;;;5111358;27;20051;-70
2022/11/24 05:52:08;;;;;;;21.33;5.88;;;6.90;99.90;;;;;;5121799;27;20054;-71
2022/11/24 05:54:34;;;;;;;18.58;4.30;;;6.90;99.90;;;;;;5111695;27;20040;-70
2022/11/24 05:57:00;;;;;;;22.70;5.18;;;6.90;99.90;;;;;;5092885;27;20726;-71
2022/11/24 05:59:25;;;;;;;26.02;5.40;;;6.90;99.90;;;;;;5122478;27;20703;-70
2022/11/24 06:01:51;;;;;;;20.60;5.03;;;6.90;99.90;;;;;;5100812;27;20058;-71
2022/11/24 06:04:17;;;;;;;21.08;5.72;;;6.90;99.90;;;;;;5076180;27;20176;-70
2022/11/24 06:06:43;;;;;;;25.00;6.13;;;6.90;99.90;;;;;;5107208;27;20057;-71
2022/11/24 06:09:09;;;;;;;24.08;5.47;;;6.90;99.90;;;;;;5114183;27;20509;-70
2022/11/24 06:11:34;;;;;;;18.70;4.95;;;6.90;99.90;;;;;;5096133;27;20053;-71
2022/11/24 06:14:00;;;;;;;19.92;5.22;;;6.90;99.90;;;;;;5099268;27;20436;-77
2022/11/24 06:16:26;;;;;;;20.33;4.97;;;6.90;99.90;;;;;;5099845;27;20161;-78
2022/11/24 06:18:52;;;;;;;17.95;5.15;;;6.90;99.90;;;;;;5098144;27;20447;-78
2022/11/24 06:21:18;;;;;;;21.48;5.45;;;6.90;99.90;;;;;;5064184;27;20493;-78
2022/11/24 06:23:47;;;;;;;21.20;5.68;;;6.90;99.90;;;;;;5114230;27;20062;-78
2022/11/24 06:26:13;;;;;;;18.65;5.63;;;6.90;99.90;;;;;;5114655;27;20640;-78
2022/11/24 06:28:39;;;;;;;23.15;5.28;;;6.90;99.90;;;;;;5140414;27;20054;-77
2022/11/24 06:31:05;;;;;;;20.30;5.22;;;7.00;99.90;;;;;;5123254;27;20086;-77
2022/11/24 06:33:35;;;;;;;21.92;5.05;;;7.00;99.90;;;;;;5121603;27;20142;-78
2022/11/24 06:36:04;;;;;;;23.00;5.75;;;7.00;99.90;;;;;;5095096;27;20042;-78
2022/11/24 06:38:30;;;;;;;21.15;5.30;;;7.00;99.90;;;;;;5100555;27;20303;-71
2022/11/24 06:41:13;;;;;;;22.90;6.03;;;7.00;99.90;;;;;;5079293;27;20051;-78
2022/11/24 06:43:39;;;;;;;23.02;5.70;;;7.00;99.90;;;;;;5119940;27;20040;-77
2022/11/24 06:46:06;;;;;;;23.80;5.90;;;7.00;99.90;;;;;;5135959;27;20699;-77
2022/11/24 06:48:32;;;;;;;21.75;5.35;;;7.00;99.90;;;;;;5113109;27;20052;-77
2022/11/24 06:51:03;;;;;;;22.40;5.30;;;7.00;99.90;;;;;;5094858;27;20058;-77
2022/11/24 06:53:30;;;;;;;22.05;5.55;;;6.90;99.90;;;;;;5094148;27;20561;-77
2022/11/24 06:56:00;;;;;;;19.55;5.10;;;6.90;99.90;;;;;;5096833;27;20051;-77
2022/11/24 06:58:26;;;;;;;20.35;5.28;;;6.90;99.90;;;;;;5112905;27;20047;-78
2022/11/24 07:00:52;;;;;;;22.80;5.63;;;6.90;99.90;;;;;;5112904;27;20088;-78
2022/11/24 07:03:18;;;;;;;19.13;6.28;;;6.90;99.90;;;;;;5114967;27;20054;-78
2022/11/24 07:05:45;;;;;;;21.95;5.47;;;6.90;99.90;;;;;;5096775;27;20051;-78
2022/11/24 07:08:11;;;;;;;20.42;5.35;;;6.90;99.90;;;;;;5108517;27;20055;-78
2022/11/24 07:10:36;;;;;;;18.38;5.80;;;6.80;99.90;;;;;;5078432;27;20074;-78
2022/11/24 07:13:05;;;;;;;18.83;5.85;;;6.80;99.90;;;;;;5093881;27;20162;-78
2022/11/24 07:15:31;;;;;;;21.65;5.28;;;6.80;99.90;;;;;;5079954;27;20130;-78
2022/11/24 07:17:57;;;;;;;22.45;5.38;;;6.80;99.90;;;;;;5114217;27;20077;-78
2022/11/24 07:20:22;;;;;;;20.13;5.50;;;6.80;99.90;;;;;;5097522;27;20764;-78
2022/11/24 07:22:48;;;;;;;25.27;5.93;;;6.80;99.90;;;;;;5096314;27;20082;-78
2022/11/24 07:25:16;;;;;;;24.35;6.15;;;6.80;99.90;;;;;;5096328;27;20461;-71
2022/11/24 07:27:41;;;;;;;19.95;6.28;;;6.80;99.90;;;;;;5111430;27;20138;-71
2022/11/24 07:30:08;;;;;;;24.63;6.53;;;6.80;99.90;;;;;;5104761;27;20106;-71
2022/11/24 07:32:33;;;;;;;25.58;7.05;;;6.90;99.90;;;;;;5096531;27;20047;-71
2022/11/24 07:34:59;;;;;;;19.95;6.97;;;6.90;99.90;;;;;;5097302;27;20050;-71
2022/11/24 07:37:26;;;;;;;22.42;6.70;;;6.90;99.90;;;;;;5111130;27;20134;-71
2022/11/24 07:39:52;;;;;;;18.48;6.10;;;6.90;99.90;;;;;;5112474;27;20073;-71
2022/11/24 07:42:17;;;;;;;22.13;6.80;;;7.00;99.90;;;;;;5093640;27;20071;-71
2022/11/24 07:44:43;;;;;;;24.77;7.72;;;7.00;99.90;;;;;;5095585;27;20047;-71
2022/11/24 07:47:09;;;;;;;24.95;7.30;;;7.00;99.90;;;;;;5094794;27;20043;-71
2022/11/24 07:49:35;;;;;;;20.08;7.20;;;7.10;99.90;;;;;;5060218;27;20054;-71
2022/11/24 07:52:01;;;;;;;19.98;6.45;;;7.10;99.90;;;;;;5113356;27;20077;-71
2022/11/24 07:54:26;;;;;;;17.52;7.50;;;7.10;99.90;;;;;;5105553;27;20059;-71
2022/11/24 07:56:52;;;;;;;20.63;7.55;;;7.20;99.90;;;;;;5091863;27;20046;-70
2022/11/24 07:59:18;;;;;;;23.30;8.07;;;7.20;99.90;;;;;;5111907;27;20051;-77
2022/11/24 08:01:43;;;;;;;21.98;8.00;;;7.20;99.90;;;;;;5087047;27;20043;-78
2022/11/24 08:04:09;;;;;;;19.88;7.57;;;7.20;99.90;;;;;;5088084;27;20059;-77
2022/11/24 08:06:35;;;;;;;24.52;8.20;;;7.10;99.90;;;;;;5092793;27;20051;-78
2022/11/24 08:09:01;;;;;;;19.83;8.00;;;7.20;99.90;;;;;;5112059;27;20178;-78
2022/11/24 08:11:27;;;;;;;22.48;8.18;;;7.10;99.90;;;;;;5078258;27;20914;-78
2022/11/24 08:13:53;;;;;;;24.30;8.63;;;7.10;99.90;;;;;;5097322;27;20713;-71
2022/11/24 08:16:19;;;;;;;23.02;8.95;;;7.20;99.90;;;;;;5113032;27;20039;-71
2022/11/24 08:18:50;;;;;;;23.25;9.23;;;7.10;99.90;;;;;;5113368;27;20146;-71
2022/11/24 08:21:16;;;;;;;22.23;8.63;;;7.10;99.90;;;;;;5077516;27;20485;-70
2022/11/24 08:23:42;;;;;;;21.70;8.90;;;7.20;99.90;;;;;;5111096;27;20234;-70
2022/11/24 08:26:12;;;;;;;21.73;9.30;;;7.30;99.90;;;;;;5111412;27;20070;-70
2022/11/24 08:28:38;;;;;;;24.00;9.15;;;7.40;99.90;;;;;;5094167;27;20046;-71
2022/11/24 08:31:11;;;;;;;19.05;9.00;;;7.50;99.90;;;;;;5096136;27;20086;-70
2022/11/24 08:33:37;;;;;;;23.55;7.93;;;7.60;99.90;;;;;;5094404;27;20075;-71
2022/11/24 08:36:05;;;;;;;21.13;8.40;;;7.60;99.90;;;;;;5111429;27;20047;-71
2022/11/24 08:38:31;;;;;;;20.48;8.82;;;7.70;99.90;;;;;;5076412;27;20604;-71
2022/11/24 08:41:06;;;;;;;23.50;9.05;;;7.70;99.90;;;;;;5107951;27;20085;-70
2022/11/24 08:43:32;;;;;;;18.13;8.40;;;7.80;99.90;;;;;;5094071;27;20043;-70
2022/11/24 08:46:02;;;;;;;18.98;7.95;;;7.80;99.90;;;;;;5092024;27;20047;-72
2022/11/24 08:48:29;;;;;;;18.42;7.80;;;7.80;99.90;;;;;;5110067;27;20128;-71
2022/11/24 08:50:56;;;;;;;17.92;8.18;;;7.80;99.90;;;;;;5140610;27;20108;-71
2022/11/24 08:53:22;;;;;;;21.13;7.90;;;7.80;99.90;;;;;;5113082;27;20050;-71
2022/11/24 08:55:48;;;;;;;20.80;8.88;;;7.80;99.90;;;;;;5094394;27;20445;-70
2022/11/24 08:58:14;;;;;;;18.98;7.88;;;7.80;99.90;;;;;;5063019;27;20073;-71
2022/11/24 09:00:39;;;;;;;20.10;8.18;;;7.80;99.90;;;;;;5094102;27;20814;-71
2022/11/24 09:03:05;;;;;;;18.90;8.02;;;7.80;99.90;;;;;;5097564;27;20548;-71
2022/11/24 09:05:32;;;;;;;18.92;7.85;;;7.80;99.90;;;;;;5122997;27;20035;-71
2022/11/24 09:07:57;;;;;;;17.35;7.30;;;7.80;99.90;;;;;;5121902;27;20061;-70
2022/11/24 09:10:26;;;;;;;15.93;7.68;;;7.80;99.90;;;;;;5093926;27;20047;-70
2022/11/24 09:12:52;;;;;;;15.35;6.57;;;7.90;99.90;;;;;;5059511;27;20390;-71
2022/11/24 09:15:19;;;;;;;17.40;6.28;;;7.90;99.90;;;;;;5093675;27;20529;-71
2022/11/24 09:17:45;;;;;;;14.18;5.63;;;7.90;99.90;;;;;;5091675;27;20836;-71
2022/11/24 09:20:11;;;;;;;14.25;5.50;;;7.90;99.90;;;;;;5093501;27;20042;-71
2022/11/24 09:22:38;;;;;;;11.73;5.50;;;7.90;99.90;;;;;;5086731;27;20039;-71
2022/11/24 09:25:05;;;;;;;12.45;5.20;;;8.00;99.90;;;;;;5108850;27;20055;-77
2022/11/24 09:27:31;;;;;;;10.40;4.63;;;8.00;99.90;;;;;;5112543;27;20050;-78
2022/11/24 09:29:57;;;;;;;10.77;3.92;;;8.00;99.90;;;;;;5111534;27;20094;-77
2022/11/24 09:32:23;;;;;;;8.95;3.95;;;8.00;99.90;;;;;;5093006;27;20596;-78
2022/11/24 09:34:51;;;;;;;10.65;4.90;;;8.00;99.90;;;;;;5078800;27;20954;-77
2022/11/24 09:37:17;;;;;;;9.30;3.45;;;8.10;99.90;;;;;;5094411;27;20084;-78
2022/11/24 09:39:43;;;;;;;12.00;3.92;;;8.10;99.90;;;;;;5110750;27;20043;-78
2022/11/24 09:42:35;;;;;;;10.70;4.13;;;8.10;99.90;;;;;;5109156;27;20054;-78
2022/11/24 09:45:01;;;;;;;9.60;3.90;;;8.10;99.90;;;;;;5085956;27;20051;-77
2022/11/24 09:47:59;;;;;;;9.30;3.90;;;8.20;99.90;;;;;;5112568;27;20486;-78
2022/11/24 09:50:34;;;;;;;7.75;3.40;;;8.20;99.90;;;;;;5108605;27;20051;-78
2022/11/24 09:53:08;;;;;;;6.93;3.70;;;8.20;99.90;;;;;;5112167;27;20059;-78
2022/11/24 09:55:48;;;;;;;7.80;3.35;;;8.20;99.90;;;;;;5112565;27;20043;-78
2022/11/24 09:58:42;;;;;;;11.23;4.18;;;8.20;99.90;;;;;;5108446;27;20081;-77
2022/11/24 10:01:18;;;;;;;8.20;4.07;;;8.30;99.90;;;;;;5111281;27;20055;-78
2022/11/24 10:03:48;;;;;;;8.00;4.40;;;8.30;99.90;;;;;;5112669;27;20035;-77
2022/11/24 10:06:39;;;;;;;7.90;3.63;;;8.30;99.90;;;;;;5088432;27;20043;-78
2022/11/24 10:09:05;;;;;;;6.47;4.13;;;8.40;99.90;;;;;;5102837;27;20055;-78
2022/11/24 10:11:40;;;;;;;7.20;3.97;;;8.40;99.90;;;;;;5110559;27;20183;-78
2022/11/24 10:14:27;;;;;;;8.60;4.20;;;8.40;99.90;;;;;;5109551;27;20101;-78
2022/11/24 10:17:20;;;;;;;7.30;4.22;;;8.50;99.90;;;;;;5110681;27;20039;-78
2022/11/24 10:20:23;;;;;;;7.55;4.70;;;8.50;99.90;;;;;;5098703;27;20062;-78
2022/11/24 10:23:17;;;;;;;8.80;4.82;;;8.50;99.90;;;;;;5109738;27;20364;-78
2022/11/24 10:26:03;;;;;;;8.65;5.13;;;8.50;99.90;;;;;;5112142;27;20043;-78
2022/11/24 10:28:39;;;;;;;8.93;5.38;;;8.60;99.90;;;;;;5092266;27;20082;-78
2022/11/24 10:31:23;;;;;;;10.32;5.50;;;8.60;99.90;;;;;;5108904;27;20047;-78
2022/11/24 10:33:49;;;;;;;9.52;5.70;;;8.70;99.90;;;;;;5111258;27;20055;-78
2022/11/24 10:36:30;;;;;;;9.70;6.20;;;8.70;99.90;;;;;;5109252;27;20038;-78
2022/11/24 10:39:04;;;;;;;10.23;6.00;;;8.80;99.90;;;;;;5092437;27;20111;-78
2022/11/24 10:41:38;;;;;;;11.30;6.40;;;8.80;99.90;;;;;;5108277;27;20842;-78
2022/11/24 10:44:03;;;;;;;9.48;6.35;;;8.90;99.90;;;;;;5110587;27;20050;-78
2022/11/24 10:46:29;;;;;;;9.57;6.60;;;8.90;99.90;;;;;;5092995;27;20047;-78
2022/11/24 10:49:04;;;;;;;10.60;6.45;;;9.00;99.90;;;;;;5093553;27;20439;-79
2022/11/24 10:51:49;;;;;;;11.77;6.45;;;9.10;99.90;;;;;;5093771;27;20075;-78
2022/11/24 10:54:18;;;;;;;11.50;6.38;;;9.10;99.90;;;;;;5111609;27;20252;-78
2022/11/24 10:56:45;;;;;;;10.77;6.03;;;9.30;99.90;;;;;;5125459;27;20039;-78
2022/11/24 10:59:35;;;;;;;12.55;7.28;;;9.40;99.90;;;;;;5111451;27;20684;-78
2022/11/24 11:02:38;;;;;;;11.38;6.35;;;9.50;99.90;;;;;;5112749;27;20047;-78
2022/11/24 11:05:32;;;;;;;13.65;7.55;;;9.50;99.90;;;;;;5033532;28;20080;-78
2022/11/24 11:08:18;;;;;;;12.15;6.78;;;9.60;99.90;;;;;;5109963;27;20565;-78
2022/11/24 11:10:46;;;;;;;12.85;6.95;;;9.60;99.90;;;;;;5120774;27;20071;-78
2022/11/24 11:13:30;;;;;;;15.23;7.82;;;9.60;99.90;;;;;;5094546;27;20078;-78
2022/11/24 11:15:57;;;;;;;13.23;6.60;;;9.60;99.90;;;;;;5094747;27;20047;-78
2022/11/24 11:18:32;;;;;;;10.90;6.93;;;9.60;99.90;;;;;;5111385;27;20539;-78
2022/11/24 11:21:03;;;;;;;15.50;7.43;;;9.60;99.90;;;;;;5114353;27;20528;-78
2022/11/24 11:23:35;;;;;;;12.00;6.88;;;9.60;99.90;;;;;;5112979;27;20137;-78
2022/11/24 11:26:31;;;;;;;11.95;6.50;;;9.60;99.90;;;;;;5105643;27;20358;-77
2022/11/24 11:28:59;;;;;;;13.77;7.32;;;9.70;99.90;;;;;;5135618;27;20461;-78
2022/11/24 11:31:26;;;;;;;13.02;7.07;;;9.70;99.90;;;;;;5137243;27;20054;-77
2022/11/24 11:34:17;;;;;;;13.43;7.50;;;9.70;99.90;;;;;;5113278;27;20047;-78
2022/11/24 11:36:49;;;;;;;14.27;6.80;;;9.70;99.90;;;;;;5108218;27;20043;-77
2022/11/24 11:39:32;;;;;;;14.70;7.13;;;9.80;99.90;;;;;;5111651;27;20288;-78
2022/11/24 11:42:31;;;;;;;13.95;7.53;;;9.80;99.90;;;;;;5110867;27;20042;-78
2022/11/24 11:45:14;;;;;;;11.43;7.15;;;9.80;99.90;;;;;;5112358;27;20047;-78
2022/11/24 11:47:56;;;;;;;15.40;7.65;;;9.90;99.90;;;;;;5114147;27;20055;-78
2022/11/24 11:50:48;;;;;;;13.38;7.82;;;9.90;99.90;;;;;;5134099;27;20222;-78
2022/11/24 11:53:14;;;;;;;14.07;7.43;;;9.90;99.90;;;;;;5107782;27;20047;-78
2022/11/24 11:55:56;;;;;;;14.43;7.50;;;9.90;99.90;;;;;;5110963;27;20059;-78
2022/11/24 11:58:46;;;;;;;14.73;7.57;;;10.00;99.90;;;;;;5107524;27;20089;-79
2022/11/24 12:01:39;;;;;;;15.80;7.72;;;10.00;99.90;;;;;;5112922;27;20058;-77
2022/11/24 12:04:29;;;;;;;14.10;7.90;;;10.00;99.90;;;;;;5094084;27;20090;-78
2022/11/24 12:07:32;;;;;;;13.00;6.70;;;10.10;99.90;;;;;;5137197;27;20508;-78
2022/11/24 12:10:16;;;;;;;15.68;6.93;;;10.10;99.90;;;;;;5111754;27;20045;-78
2022/11/24 12:12:54;;;;;;;14.68;7.13;;;10.10;99.90;;;;;;5110944;27;20072;-78
2022/11/24 12:15:37;;;;;;;14.65;6.82;;;10.10;99.90;;;;;;5112873;27;20180;-78
2022/11/24 12:18:28;;;;;;;15.80;6.65;;;10.20;99.90;;;;;;5091986;27;20430;-78
2022/11/24 12:21:12;;;;;;;14.63;6.15;;;10.20;99.90;;;;;;5097294;27;20042;-77
2022/11/24 12:24:09;;;;;;;11.75;5.05;;;10.30;99.90;;;;;;5107270;27;20132;-77
2022/11/24 12:26:54;;;;;;;14.82;5.38;;;10.30;99.90;;;;;;5140070;27;20051;-77
2022/11/24 12:29:29;;;;;;;12.27;4.95;;;10.30;99.90;;;;;;5111576;27;20919;-78
2022/11/24 12:32:19;;;;;;;15.93;5.63;;;10.30;99.90;;;;;;5108895;27;20074;-78
2022/11/24 12:34:54;;;;;;;;;;;10.40;99.90;;;;;;5109830;27;20082;-77
2022/11/24 12:37:20;;;;;;;13.07;4.60;;;10.40;99.90;;;;;;5090707;27;19927;-77
2022/11/24 12:40:10;;;;;;;17.63;5.72;;;10.40;99.90;;;;;;5137759;27;20547;-77
2022/11/24 12:42:54;;;;;;;15.85;5.00;;;10.50;99.90;;;;;;5110580;27;20063;-77
2022/11/24 12:45:45;;;;;;;13.90;4.25;;;10.50;99.90;;;;;;5087613;27;20143;-77
2022/11/24 12:48:33;;;;;;;14.82;4.35;;;10.60;99.90;;;;;;5105989;27;20051;-77
2022/11/24 12:51:05;;;;;;;12.73;4.30;;;10.60;99.90;;;;;;5113193;27;20059;-77
2022/11/24 12:53:33;;;;;;;13.60;4.15;;;10.60;99.90;;;;;;5093646;27;20061;-77
2022/11/24 12:56:23;;;;;;;13.85;4.25;;;10.60;99.90;;;;;;5113204;27;20043;-77
2022/11/24 12:59:09;;;;;;;11.73;4.00;;;10.70;99.90;;;;;;5111248;27;20078;-78
2022/11/24 13:01:57;;;;;;;16.27;4.43;;;10.70;99.90;;;;;;5109528;27;20261;-78
2022/11/24 13:04:29;;;;;;;13.70;4.15;;;10.70;99.90;;;;;;5095316;27;20043;-78
2022/11/24 13:07:13;;;;;;;16.05;4.25;;;10.70;99.90;;;;;;5100045;27;20197;-77
2022/11/24 13:10:17;;;;;;;14.68;4.72;;;10.70;99.90;;;;;;5095253;27;20156;-77